Time,TemperatureF,DewpointF,PressureIn,WindDirection,WindDirectionDegrees,WindSpeedMPH,WindSpeedGustMPH,Humidity,HourlyPrecipIn,Conditions,Clouds,dailyrainin,SoftwareType,DateUTC
2013-04-29 00:08:00,65.6,62.0,30.71,South,171,0.0,-999.0,89,-99.99,,,0.00,weatherlink.com 1.10,2013-04-29 05:08:00,
2013-04-29 00:23:00,65.6,63.0,30.71,South,170,0.0,-999.0,90,-99.99,,,0.00,weatherlink.com 1.10,2013-04-29 05:23:00,
2013-04-29 00:38:00,65.7,63.0,30.71,South,170,0.0,-999.0,90,-99.99,,,0.00,weatherlink.com 1.10,2013-04-29 05:38:00,
2013-04-29 00:53:00,65.7,63.0,30.71,South,170,0.0,-999.0,90,-99.99,,,0.00,weatherlink.com 1.10,2013-04-29 05:53:00,
2013-04-29 01:08:00,65.0,62.0,30.70,South,170,0.0,-999.0,90,-99.99,,,0.00,weatherlink.com 1.10,2013-04-29 06:08:00,
2013-04-29 01:23:00,64.6,62.0,30.70,South,170,0.0,-999.0,91,-99.99,,,0.00,weatherlink.com 1.10,2013-04-29 06:23:00,
2013-04-29 01:38:00,64.3,62.0,30.69,South,170,0.0,-999.0,91,-99.99,,,0.00,weatherlink.com 1.10,2013-04-29 06:38:00,
2013-04-29 01:53:00,64.1,62.0,30.68,South,170,0.0,-999.0,92,-99.99,,,0.00,weatherlink.com 1.10,2013-04-29 06:53:00,
2013-04-29 02:08:00,63.9,62.0,30.68,South,170,0.0,-999.0,92,-99.99,,,0.00,weatherlink.com 1.10,2013-04-29 07:08:00,
2013-04-29 02:23:00,64.1,62.0,30.68,SSE,165,1.0,-999.0,93,-99.99,,,0.00,weatherlink.com 1.10,2013-04-29 07:23:00,
2013-04-29 02:38:00,64.0,62.0,30.67,South,170,0.0,-999.0,93,-99.99,,,0.00,weatherlink.com 1.10,2013-04-29 07:38:00,
2013-04-29 02:53:00,64.0,62.0,30.67,South,174,1.0,-999.0,93,-99.99,,,0.00,weatherlink.com 1.10,2013-04-29 07:53:00,
2013-04-29 03:08:00,63.9,62.0,30.66,SSE,168,0.0,-999.0,93,-99.99,,,0.00,weatherlink.com 1.10,2013-04-29 08:08:00,
2013-04-29 03:23:00,63.8,62.0,30.66,South,169,0.0,-999.0,93,-99.99,,,0.00,weatherlink.com 1.10,2013-04-29 08:23:00,
2013-04-29 03:38:00,63.4,61.0,30.66,South,169,0.0,-999.0,93,-99.99,,,0.00,weatherlink.com 1.10,2013-04-29 08:38:00,
2013-04-29 03:53:00,62.4,60.0,30.65,South,169,0.0,-999.0,93,-99.99,,,0.00,weatherlink.com 1.10,2013-04-29 08:53:00,
2013-04-29 04:08:00,61.7,60.0,30.66,South,169,0.0,-999.0,93,-99.99,,,0.00,weatherlink.com 1.10,2013-04-29 09:08:00,
2013-04-29 04:24:00,60.8,59.0,30.65,South,169,0.0,-999.0,92,-99.99,,,0.00,weatherlink.com 1.10,2013-04-29 09:24:00,
2013-04-29 04:39:00,61.2,60.0,30.65,South,169,0.0,-999.0,94,-99.99,,,0.00,weatherlink.com 1.10,2013-04-29 09:39:00,
2013-04-29 04:54:00,62.5,61.0,30.66,South,169,0.0,-999.0,94,-99.99,,,0.00,weatherlink.com 1.10,2013-04-29 09:54:00,
2013-04-29 05:09:00,63.7,62.0,30.66,SSE,167,0.0,-999.0,94,-99.99,,,0.00,weatherlink.com 1.10,2013-04-29 10:09:00,
2013-04-29 05:24:00,64.5,63.0,30.66,SSE,166,2.0,-999.0,94,-99.99,,,0.00,weatherlink.com 1.10,2013-04-29 10:24:00,
2013-04-29 05:39:00,64.8,63.0,30.66,SSE,158,2.0,-999.0,94,-99.99,,,0.00,weatherlink.com 1.10,2013-04-29 10:39:00,
2013-04-29 05:54:00,64.9,63.0,30.66,South,174,3.0,-999.0,94,-99.99,,,0.00,weatherlink.com 1.10,2013-04-29 10:54:00,
2013-04-29 06:09:00,65.0,63.0,30.67,SSE,166,0.0,-999.0,94,-99.99,,,0.00,weatherlink.com 1.10,2013-04-29 11:09:00,
2013-04-29 06:24:00,65.1,63.0,30.67,SSE,166,0.0,-999.0,94,-99.99,,,0.00,weatherlink.com 1.10,2013-04-29 11:24:00,
2013-04-29 06:39:00,65.1,63.0,30.68,SSE,166,0.0,-999.0,94,-99.99,,,0.00,weatherlink.com 1.10,2013-04-29 11:39:00,
2013-04-29 06:54:00,65.1,63.0,30.68,SSE,166,0.0,-999.0,94,-99.99,,,0.00,weatherlink.com 1.10,2013-04-29 11:54:00,
2013-04-29 07:09:00,65.2,64.0,30.68,SSE,166,0.0,-999.0,94,-99.99,,,0.00,weatherlink.com 1.10,2013-04-29 12:09:00,
2013-04-29 07:24:00,65.6,64.0,30.69,South,177,0.0,-999.0,94,-99.99,,,0.00,weatherlink.com 1.10,2013-04-29 12:24:00,
2013-04-29 07:39:00,65.7,64.0,30.70,SSE,165,3.0,-999.0,94,-99.99,,,0.00,weatherlink.com 1.10,2013-04-29 12:39:00,
2013-04-29 07:54:00,65.8,64.0,30.71,South,171,2.0,-999.0,94,-99.99,,,0.00,weatherlink.com 1.10,2013-04-29 12:54:00,
2013-04-29 08:09:00,65.9,64.0,30.71,South,169,3.0,-999.0,94,-99.99,,,0.00,weatherlink.com 1.10,2013-04-29 13:09:00,
2013-04-29 08:24:00,65.9,64.0,30.71,South,171,0.0,-999.0,94,-99.99,,,0.00,weatherlink.com 1.10,2013-04-29 13:24:00,
2013-04-29 08:39:00,66.1,64.0,30.71,South,174,7.0,-999.0,94,-99.99,,,0.00,weatherlink.com 1.10,2013-04-29 13:39:00,
2013-04-29 08:54:00,66.1,64.0,30.72,SE,143,0.0,-999.0,94,-99.99,,,0.00,weatherlink.com 1.10,2013-04-29 13:54:00,
2013-04-29 09:09:00,66.3,65.0,30.72,East,90,0.0,-999.0,94,-99.99,,,0.00,weatherlink.com 1.10,2013-04-29 14:09:00,
2013-04-29 09:24:00,66.3,65.0,30.71,East,93,0.0,-999.0,94,-99.99,,,0.00,weatherlink.com 1.10,2013-04-29 14:24:00,
2013-04-29 09:39:00,66.7,65.0,30.72,SSE,148,0.0,-999.0,94,-99.99,,,0.00,weatherlink.com 1.10,2013-04-29 14:39:00,
2013-04-29 09:54:00,67.2,66.0,30.72,SSE,148,2.0,-999.0,94,-99.99,,,0.00,weatherlink.com 1.10,2013-04-29 14:54:00,
2013-04-29 10:09:00,67.7,66.0,30.72,South,176,0.0,-999.0,94,-99.99,,,0.00,weatherlink.com 1.10,2013-04-29 15:09:00,
2013-04-29 10:24:00,68.2,66.0,30.72,South,171,2.0,-999.0,93,-99.99,,,0.00,weatherlink.com 1.10,2013-04-29 15:24:00,
2013-04-29 10:39:00,68.6,66.0,30.73,South,176,0.0,-999.0,92,-99.99,,,0.00,weatherlink.com 1.10,2013-04-29 15:39:00,
2013-04-29 10:54:00,69.0,66.0,30.73,ESE,121,2.0,-999.0,91,-99.99,,,0.00,weatherlink.com 1.10,2013-04-29 15:54:00,
2013-04-29 11:09:00,69.2,66.0,30.73,ENE,69,1.0,-999.0,90,-99.99,,,0.00,weatherlink.com 1.10,2013-04-29 16:09:00,
2013-04-29 11:24:00,69.4,66.0,30.73,ENE,76,3.0,-999.0,89,-99.99,,,0.00,weatherlink.com 1.10,2013-04-29 16:24:00,
2013-04-29 11:39:00,70.9,67.0,30.73,ENE,64,2.0,-999.0,88,-99.99,,,0.00,weatherlink.com 1.10,2013-04-29 16:39:00,
2013-04-29 11:54:00,71.6,67.0,30.72,NE,34,3.0,-999.0,85,-99.99,,,0.00,weatherlink.com 1.10,2013-04-29 16:54:00,
2013-04-29 12:09:00,73.1,67.0,30.72,ENE,70,4.0,-999.0,81,-99.99,,,0.00,weatherlink.com 1.10,2013-04-29 17:09:00,
2013-04-29 12:24:00,73.6,67.0,30.71,NE,52,2.0,-999.0,81,-99.99,,,0.00,weatherlink.com 1.10,2013-04-29 17:24:00,
2013-04-29 12:39:00,73.6,67.0,30.71,NE,51,3.0,-999.0,80,-99.99,,,0.00,weatherlink.com 1.10,2013-04-29 17:39:00,
2013-04-29 12:54:00,75.4,68.0,30.71,ENE,72,3.0,-999.0,78,-99.99,,,0.00,weatherlink.com 1.10,2013-04-29 17:54:00,
2013-04-29 13:09:00,76.2,68.0,30.71,SSW,198,4.0,-999.0,76,-99.99,,,0.00,weatherlink.com 1.10,2013-04-29 18:09:00,
2013-04-29 13:24:00,76.6,68.0,30.70,South,182,5.0,-999.0,75,-99.99,,,0.00,weatherlink.com 1.10,2013-04-29 18:24:00,
2013-04-29 13:39:00,77.8,68.0,30.68,NW,325,0.0,-999.0,72,-99.99,,,0.00,weatherlink.com 1.10,2013-04-29 18:39:00,
2013-04-29 13:54:00,77.8,68.0,30.68,South,183,5.0,-999.0,71,-99.99,,,0.00,weatherlink.com 1.10,2013-04-29 18:54:00,
2013-04-29 14:09:00,78.8,68.0,30.68,NE,44,3.0,-999.0,69,-99.99,,,0.00,weatherlink.com 1.10,2013-04-29 19:09:00,
2013-04-29 14:24:00,80.2,68.0,30.66,SE,137,3.0,-999.0,66,-99.99,,,0.00,weatherlink.com 1.10,2013-04-29 19:24:00,
2013-04-29 14:39:00,80.1,67.0,30.65,South,179,5.0,-999.0,64,-99.99,,,0.00,weatherlink.com 1.10,2013-04-29 19:39:00,
2013-04-29 14:54:00,81.6,66.0,30.64,SSE,163,1.0,-999.0,60,-99.99,,,0.00,weatherlink.com 1.10,2013-04-29 19:54:00,
2013-04-29 15:09:00,80.8,66.0,30.63,ENE,68,4.0,-999.0,61,-99.99,,,0.00,weatherlink.com 1.10,2013-04-29 20:09:00,
2013-04-29 15:24:00,80.5,67.0,30.62,NE,49,2.0,-999.0,64,-99.99,,,0.00,weatherlink.com 1.10,2013-04-29 20:24:00,
2013-04-29 15:39:00,80.9,66.0,30.61,East,94,2.0,-999.0,60,-99.99,,,0.00,weatherlink.com 1.10,2013-04-29 20:39:00,
2013-04-29 15:54:00,82.0,66.0,30.61,SE,141,0.0,-999.0,58,-99.99,,,0.00,weatherlink.com 1.10,2013-04-29 20:54:00,
2013-04-29 16:09:00,80.9,65.0,30.60,ENE,76,1.0,-999.0,59,-99.99,,,0.00,weatherlink.com 1.10,2013-04-29 21:09:00,
2013-04-29 16:24:00,80.4,66.0,30.59,ENE,67,1.0,-999.0,61,-99.99,,,0.00,weatherlink.com 1.10,2013-04-29 21:24:00,
2013-04-29 16:39:00,80.2,64.0,30.59,ENE,65,2.0,-999.0,59,-99.99,,,0.00,weatherlink.com 1.10,2013-04-29 21:39:00,
2013-04-29 16:55:00,80.6,65.0,30.59,ENE,76,2.0,-999.0,59,-99.99,,,0.00,weatherlink.com 1.10,2013-04-29 21:55:00,
2013-04-29 17:10:00,78.7,63.0,30.60,ENE,67,9.0,-999.0,59,-99.99,,,0.00,weatherlink.com 1.10,2013-04-29 22:10:00,
2013-04-29 17:25:00,76.3,65.0,30.60,ENE,60,5.0,-999.0,67,-99.99,,,0.00,weatherlink.com 1.10,2013-04-29 22:25:00,
2013-04-29 17:40:00,75.9,65.0,30.59,ENE,64,2.0,-999.0,70,-99.99,,,0.01,weatherlink.com 1.10,2013-04-29 22:40:00,
2013-04-29 17:55:00,76.7,65.0,30.59,ENE,72,4.0,-999.0,67,-99.99,,,0.01,weatherlink.com 1.10,2013-04-29 22:55:00,
2013-04-29 18:10:00,75.0,65.0,30.61,South,177,11.0,-999.0,72,-99.99,,,0.01,weatherlink.com 1.10,2013-04-29 23:10:00,
2013-04-29 18:25:00,71.7,65.0,30.63,SSE,165,10.0,-999.0,78,-99.99,,,0.01,weatherlink.com 1.10,2013-04-29 23:25:00,
2013-04-29 18:40:00,66.8,59.0,30.61,SSE,163,8.0,-999.0,75,-99.99,,,0.01,weatherlink.com 1.10,2013-04-29 23:40:00,
2013-04-29 18:54:00,68.0,59.0,30.60,SE,146,9.0,-999.0,74,-99.99,,,0.01,weatherlink.com 1.10,2013-04-29 23:54:00,
2013-04-29 19:09:00,68.7,63.0,30.62,SSE,148,3.0,-999.0,82,-99.99,,,0.01,weatherlink.com 1.10,2013-04-30 00:09:00,
2013-04-29 19:24:00,67.8,64.0,30.62,SSE,152,2.0,-999.0,87,-99.99,,,0.01,weatherlink.com 1.10,2013-04-30 00:24:00,
2013-04-29 19:39:00,67.1,64.0,30.62,South,169,2.0,-999.0,88,-99.99,,,0.01,weatherlink.com 1.10,2013-04-30 00:39:00,
2013-04-29 19:55:00,66.8,64.0,30.62,South,178,2.0,-999.0,89,-99.99,,,0.01,weatherlink.com 1.10,2013-04-30 00:55:00,
2013-04-29 20:10:00,66.5,64.0,30.61,South,173,0.0,-999.0,90,-99.99,,,0.01,weatherlink.com 1.10,2013-04-30 01:10:00,
2013-04-29 20:25:00,66.5,64.0,30.62,South,172,2.0,-999.0,90,-99.99,,,0.01,weatherlink.com 1.10,2013-04-30 01:25:00,
2013-04-29 20:40:00,66.3,63.0,30.62,South,173,2.0,-999.0,90,-99.99,,,0.01,weatherlink.com 1.10,2013-04-30 01:40:00,
2013-04-29 20:55:00,66.1,63.0,30.62,South,173,0.0,-999.0,90,-99.99,,,0.01,weatherlink.com 1.10,2013-04-30 01:55:00,
2013-04-29 21:10:00,65.9,63.0,30.62,South,173,0.0,-999.0,90,-99.99,,,0.01,weatherlink.com 1.10,2013-04-30 02:10:00,
2013-04-29 21:25:00,65.5,63.0,30.63,South,173,0.0,-999.0,90,-99.99,,,0.01,weatherlink.com 1.10,2013-04-30 02:25:00,
2013-04-29 21:40:00,65.1,63.0,30.64,South,173,0.0,-999.0,91,-99.99,,,0.01,weatherlink.com 1.10,2013-04-30 02:40:00,
2013-04-29 21:55:00,65.2,63.0,30.64,South,173,0.0,-999.0,91,-99.99,,,0.01,weatherlink.com 1.10,2013-04-30 02:55:00,
2013-04-29 22:10:00,65.0,63.0,30.64,South,173,1.0,-999.0,92,-99.99,,,0.01,weatherlink.com 1.10,2013-04-30 03:10:00,
2013-04-29 22:25:00,65.2,63.0,30.65,South,173,0.0,-999.0,92,-99.99,,,0.01,weatherlink.com 1.10,2013-04-30 03:25:00,
2013-04-29 22:40:00,65.0,63.0,30.64,South,173,1.0,-999.0,92,-99.99,,,0.01,weatherlink.com 1.10,2013-04-30 03:40:00,
2013-04-29 22:55:00,64.9,63.0,30.64,South,173,0.0,-999.0,92,-99.99,,,0.01,weatherlink.com 1.10,2013-04-30 03:55:00,
2013-04-29 23:10:00,64.7,62.0,30.64,South,173,0.0,-999.0,92,-99.99,,,0.01,weatherlink.com 1.10,2013-04-30 04:10:00,
2013-04-29 23:25:00,64.2,62.0,30.64,South,173,0.0,-999.0,92,-99.99,,,0.01,weatherlink.com 1.10,2013-04-30 04:25:00,
2013-04-29 23:40:00,64.0,62.0,30.63,South,173,0.0,-999.0,92,-99.99,,,0.01,weatherlink.com 1.10,2013-04-30 04:40:00,
2013-04-29 23:55:00,63.9,62.0,30.63,South,173,0.0,-999.0,92,-99.99,,,0.00,weatherlink.com 1.10,2013-04-30 04:55:00,